sensor_id;sensor_type;location;lat;lon;timestamp;temperature;humidity
66831;DHT22;53739;44.224;22.528;2023-03-24T00:11:59;205.40;6502.40
66831;DHT22;53739;44.224;22.528;2023-03-24T00:14:25;205.40;6502.40
66831;DHT22;53739;44.224;22.528;2023-03-24T00:16:50;205.30;6502.40
66831;DHT22;53739;44.224;22.528;2023-03-24T00:19:17;205.20;6502.40
66831;DHT22;53739;44.224;22.528;2023-03-24T00:21:44;205.20;6502.40
66831;DHT22;53739;44.224;22.528;2023-03-24T00:26:39;205.00;307.20
66831;DHT22;53739;44.224;22.528;2023-03-24T00:29:06;204.90;128.00
66831;DHT22;53739;44.224;22.528;2023-03-24T00:31:32;205.00;6502.40
66831;DHT22;53739;44.224;22.528;2023-03-24T00:33:58;204.90;563.20
66831;DHT22;53739;44.224;22.528;2023-03-24T00:36:27;204.90;6502.40
66831;DHT22;53739;44.224;22.528;2023-03-24T00:38:54;204.80;6502.40
66831;DHT22;53739;44.224;22.528;2023-03-24T00:41:21;204.80;6502.40
66831;DHT22;53739;44.224;22.528;2023-03-24T00:43:49;204.80;6502.40
66831;DHT22;53739;44.224;22.528;2023-03-24T00:46:16;180.10;6502.40
66831;DHT22;53739;44.224;22.528;2023-03-24T00:48:59;180.00;6502.40
66831;DHT22;53739;44.224;22.528;2023-03-24T00:51:33;179.90;6502.40
66831;DHT22;53739;44.224;22.528;2023-03-24T00:54:00;180.00;6502.40
66831;DHT22;53739;44.224;22.528;2023-03-24T00:56:27;180.10;6502.40
66831;DHT22;53739;44.224;22.528;2023-03-24T00:58:54;180.10;6502.40
66831;DHT22;53739;44.224;22.528;2023-03-24T01:01:25;180.10;6502.40
66831;DHT22;53739;44.224;22.528;2023-03-24T01:03:52;204.80;6502.40
66831;DHT22;53739;44.224;22.528;2023-03-24T01:06:18;204.80;6502.40
66831;DHT22;53739;44.224;22.528;2023-03-24T01:08:47;204.80;6502.40
66831;DHT22;53739;44.224;22.528;2023-03-24T01:11:14;204.80;6502.40
66831;DHT22;53739;44.224;22.528;2023-03-24T01:13:41;180.10;6502.40
66831;DHT22;53739;44.224;22.528;2023-03-24T01:16:08;180.00;6502.40
66831;DHT22;53739;44.224;22.528;2023-03-24T01:18:34;179.90;6502.40
66831;DHT22;53739;44.224;22.528;2023-03-24T01:21:06;179.90;6502.40
66831;DHT22;53739;44.224;22.528;2023-03-24T01:23:32;180.00;6502.40
66831;DHT22;53739;44.224;22.528;2023-03-24T01:26:00;180.00;6502.40
66831;DHT22;53739;44.224;22.528;2023-03-24T01:28:29;180.00;128.00
66831;DHT22;53739;44.224;22.528;2023-03-24T01:30:55;179.90;6502.40
66831;DHT22;53739;44.224;22.528;2023-03-24T01:33:21;179.90;6502.40
66831;DHT22;53739;44.224;22.528;2023-03-24T01:35:48;179.90;6502.40
66831;DHT22;53739;44.224;22.528;2023-03-24T01:38:14;180.00;6502.40
66831;DHT22;53739;44.224;22.528;2023-03-24T01:40:43;180.00;6502.40
66831;DHT22;53739;44.224;22.528;2023-03-24T01:43:22;179.80;6502.40
66831;DHT22;53739;44.224;22.528;2023-03-24T01:46:01;179.80;6502.40
66831;DHT22;53739;44.224;22.528;2023-03-24T01:48:36;179.90;6502.40
66831;DHT22;53739;44.224;22.528;2023-03-24T01:51:10;179.80;6502.40
66831;DHT22;53739;44.224;22.528;2023-03-24T01:53:42;179.70;6502.40
66831;DHT22;53739;44.224;22.528;2023-03-24T01:56:09;179.50;6502.40
66831;DHT22;53739;44.224;22.528;2023-03-24T01:58:38;179.50;6502.40
66831;DHT22;53739;44.224;22.528;2023-03-24T02:01:05;179.60;153.60
66831;DHT22;53739;44.224;22.528;2023-03-24T02:03:33;179.50;6502.40
66831;DHT22;53739;44.224;22.528;2023-03-24T02:06:04;179.50;6502.40
66831;DHT22;53739;44.224;22.528;2023-03-24T02:10:57;179.40;6502.40
66831;DHT22;53739;44.224;22.528;2023-03-24T02:13:23;179.40;6502.40
66831;DHT22;53739;44.224;22.528;2023-03-24T02:22:42;179.50;6502.40
66831;DHT22;53739;44.224;22.528;2023-03-24T02:28:11;179.20;128.00
66831;DHT22;53739;44.224;22.528;2023-03-24T02:44:48;179.30;6502.40
66831;DHT22;53739;44.224;22.528;2023-03-24T02:55:01;179.30;6502.40
66831;DHT22;53739;44.224;22.528;2023-03-24T02:57:34;179.20;6502.40
66831;DHT22;53739;44.224;22.528;2023-03-24T03:02:54;179.40;6502.40
66831;DHT22;53739;44.224;22.528;2023-03-24T03:05:33;179.40;6502.40
66831;DHT22;53739;44.224;22.528;2023-03-24T03:08:02;179.40;128.00
66831;DHT22;53739;44.224;22.528;2023-03-24T03:10:33;179.20;6502.40
66831;DHT22;53739;44.224;22.528;2023-03-24T03:13:06;179.30;6502.40
66831;DHT22;53739;44.224;22.528;2023-03-24T03:15:40;179.30;6502.40
66831;DHT22;53739;44.224;22.528;2023-03-24T03:18:13;179.40;6502.40
66831;DHT22;53739;44.224;22.528;2023-03-24T03:20:46;179.20;512.00
66831;DHT22;53739;44.224;22.528;2023-03-24T03:23:42;179.30;6502.40
66831;DHT22;53739;44.224;22.528;2023-03-24T03:26:13;179.20;6502.40
66831;DHT22;53739;44.224;22.528;2023-03-24T03:28:43;179.30;6502.40
66831;DHT22;53739;44.224;22.528;2023-03-24T03:31:18;179.20;6502.40
66831;DHT22;53739;44.224;22.528;2023-03-24T03:33:52;154.50;6502.40
66831;DHT22;53739;44.224;22.528;2023-03-24T03:36:49;154.50;6502.40
66831;DHT22;53739;44.224;22.528;2023-03-24T03:39:48;179.20;6502.40
66831;DHT22;53739;44.224;22.528;2023-03-24T03:42:14;179.20;6502.40
66831;DHT22;53739;44.224;22.528;2023-03-24T03:44:40;179.20;6502.40
66831;DHT22;53739;44.224;22.528;2023-03-24T03:47:06;154.50;6502.40
66831;DHT22;53739;44.224;22.528;2023-03-24T03:49:32;154.40;6502.40
66831;DHT22;53739;44.224;22.528;2023-03-24T03:51:58;154.40;6502.40
66831;DHT22;53739;44.224;22.528;2023-03-24T06:05:38;205.30;6502.40
66831;DHT22;53739;44.224;22.528;2023-03-24T06:08:04;205.20;128.00
66831;DHT22;53739;44.224;22.528;2023-03-24T06:10:30;205.20;6502.40
66831;DHT22;53739;44.224;22.528;2023-03-24T06:15:22;205.30;6502.40
66831;DHT22;53739;44.224;22.528;2023-03-24T06:22:46;231.20;6502.40
66831;DHT22;53739;44.224;22.528;2023-03-24T06:25:13;256.00;6502.40
66831;DHT22;53739;44.224;22.528;2023-03-24T06:27:43;256.20;6502.40
66831;DHT22;53739;44.224;22.528;2023-03-24T06:30:17;256.60;6502.40
66831;DHT22;53739;44.224;22.528;2023-03-24T06:32:43;256.60;332.80
66831;DHT22;53739;44.224;22.528;2023-03-24T06:42:34;256.90;6502.40
66831;DHT22;53739;44.224;22.528;2023-03-24T06:45:00;307.30;128.00
66831;DHT22;53739;44.224;22.528;2023-03-24T06:47:26;307.70;230.40
66831;DHT22;53739;44.224;22.528;2023-03-24T06:49:52;307.80;128.00
66831;DHT22;53739;44.224;22.528;2023-03-24T06:57:10;307.90;128.00
66831;DHT22;53739;44.224;22.528;2023-03-24T06:59:36;333.20;128.00
66831;DHT22;53739;44.224;22.528;2023-03-24T07:02:01;333.60;128.00
66831;DHT22;53739;44.224;22.528;2023-03-24T07:04:27;333.70;128.00
66831;DHT22;53739;44.224;22.528;2023-03-24T07:06:54;333.60;128.00
66831;DHT22;53739;44.224;22.528;2023-03-24T07:09:20;358.50;128.00
66831;DHT22;53739;44.224;22.528;2023-03-24T07:11:46;358.70;128.00
66831;DHT22;53739;44.224;22.528;2023-03-24T07:14:11;359.20;128.00
66831;DHT22;53739;44.224;22.528;2023-03-24T07:16:37;384.40;128.00
66831;DHT22;53739;44.224;22.528;2023-03-24T07:19:03;384.80;128.00
66831;DHT22;53739;44.224;22.528;2023-03-24T07:21:28;409.80;640.00
66831;DHT22;53739;44.224;22.528;2023-03-24T07:23:54;410.20;2201.60
66831;DHT22;53739;44.224;22.528;2023-03-24T07:26:20;410.20;2355.20
66831;DHT22;53739;44.224;22.528;2023-03-24T07:28:46;410.30;409.60
66831;DHT22;53739;44.224;22.528;2023-03-24T07:31:12;410.50;128.00
66831;DHT22;53739;44.224;22.528;2023-03-24T07:33:37;435.20;281.60
66831;DHT22;53739;44.224;22.528;2023-03-24T07:36:04;435.50;1996.80
66831;DHT22;53739;44.224;22.528;2023-03-24T07:38:32;435.80;2355.20
66831;DHT22;53739;44.224;22.528;2023-03-24T07:40:58;435.90;2355.20
66831;DHT22;53739;44.224;22.528;2023-03-24T07:43:25;435.90;2355.20
66831;DHT22;53739;44.224;22.528;2023-03-24T07:45:50;436.00;2355.20
66831;DHT22;53739;44.224;22.528;2023-03-24T07:48:16;460.80;2380.80
66831;DHT22;53739;44.224;22.528;2023-03-24T07:50:42;436.10;2355.20
66831;DHT22;53739;44.224;22.528;2023-03-24T07:53:08;460.80;2201.60
66831;DHT22;53739;44.224;22.528;2023-03-24T07:55:37;461.00;2380.80
66831;DHT22;53739;44.224;22.528;2023-03-24T07:58:03;461.10;2380.80
66831;DHT22;53739;44.224;22.528;2023-03-24T08:02:57;461.20;2380.80
66831;DHT22;53739;44.224;22.528;2023-03-24T08:05:24;461.40;2380.80
66831;DHT22;53739;44.224;22.528;2023-03-24T08:07:52;461.50;2380.80
66831;DHT22;53739;44.224;22.528;2023-03-24T08:10:20;461.70;2380.80
66831;DHT22;53739;44.224;22.528;2023-03-24T08:12:49;461.60;2380.80
66831;DHT22;53739;44.224;22.528;2023-03-24T08:15:16;486.40;2380.80
66831;DHT22;53739;44.224;22.528;2023-03-24T08:17:42;486.40;2380.80
66831;DHT22;53739;44.224;22.528;2023-03-24T08:20:10;486.60;2380.80
66831;DHT22;53739;44.224;22.528;2023-03-24T08:22:44;486.90;2380.80
66831;DHT22;53739;44.224;22.528;2023-03-24T08:27:38;487.30;2380.80
66831;DHT22;53739;44.224;22.528;2023-03-24T08:30:06;512.00;2380.80
66831;DHT22;53739;44.224;22.528;2023-03-24T08:32:34;486.90;2380.80
66831;DHT22;53739;44.224;22.528;2023-03-24T08:35:00;487.00;2380.80
66831;DHT22;53739;44.224;22.528;2023-03-24T08:37:29;487.20;2380.80
66831;DHT22;53739;44.224;22.528;2023-03-24T08:39:56;512.10;2380.80
66831;DHT22;53739;44.224;22.528;2023-03-24T08:42:24;512.70;2380.80
66831;DHT22;53739;44.224;22.528;2023-03-24T08:47:16;512.90;2380.80
66831;DHT22;53739;44.224;22.528;2023-03-24T08:49:42;537.80;2406.40
66831;DHT22;53739;44.224;22.528;2023-03-24T08:52:08;538.00;2406.40
66831;DHT22;53739;44.224;22.528;2023-03-24T08:54:33;538.40;2406.40
66831;DHT22;53739;44.224;22.528;2023-03-24T08:57:00;538.10;2406.40
66831;DHT22;53739;44.224;22.528;2023-03-24T08:59:26;537.90;2406.40
66831;DHT22;53739;44.224;22.528;2023-03-24T09:01:51;538.20;2406.40
66831;DHT22;53739;44.224;22.528;2023-03-24T09:04:17;538.00;2406.40
66831;DHT22;53739;44.224;22.528;2023-03-24T09:06:43;538.30;2406.40
66831;DHT22;53739;44.224;22.528;2023-03-24T09:09:08;538.30;2406.40
66831;DHT22;53739;44.224;22.528;2023-03-24T09:11:34;538.20;2406.40
66831;DHT22;53739;44.224;22.528;2023-03-24T09:14:00;538.40;2406.40
66831;DHT22;53739;44.224;22.528;2023-03-24T09:16:26;538.00;2124.80
66831;DHT22;53739;44.224;22.528;2023-03-24T09:18:52;538.20;2406.40
66831;DHT22;53739;44.224;22.528;2023-03-24T09:21:18;538.00;2406.40
66831;DHT22;53739;44.224;22.528;2023-03-24T09:23:44;537.90;2406.40
66831;DHT22;53739;44.224;22.528;2023-03-24T09:26:10;538.00;2406.40
66831;DHT22;53739;44.224;22.528;2023-03-24T09:28:36;538.00;2406.40
66831;DHT22;53739;44.224;22.528;2023-03-24T09:31:04;538.00;2406.40
66831;DHT22;53739;44.224;22.528;2023-03-24T09:33:31;538.10;2406.40
66831;DHT22;53739;44.224;22.528;2023-03-24T09:36:00;538.00;2406.40
66831;DHT22;53739;44.224;22.528;2023-03-24T09:38:27;538.20;2406.40
66831;DHT22;53739;44.224;22.528;2023-03-24T09:40:58;538.00;2406.40
66831;DHT22;53739;44.224;22.528;2023-03-24T09:43:55;538.30;2406.40
66831;DHT22;53739;44.224;22.528;2023-03-24T09:46:36;538.50;2406.40
66831;DHT22;53739;44.224;22.528;2023-03-24T09:49:04;563.20;2432.00
66831;DHT22;53739;44.224;22.528;2023-03-24T09:51:37;563.50;2073.60
66831;DHT22;53739;44.224;22.528;2023-03-24T09:56:38;563.60;2252.80
66831;DHT22;53739;44.224;22.528;2023-03-24T10:02:14;538.50;2406.40
66831;DHT22;53739;44.224;22.528;2023-03-24T10:04:40;538.50;2406.40
66831;DHT22;53739;44.224;22.528;2023-03-24T10:09:40;563.30;2432.00
66831;DHT22;53739;44.224;22.528;2023-03-24T10:12:27;563.80;2432.00
66831;DHT22;53739;44.224;22.528;2023-03-24T10:15:06;563.70;2432.00
66831;DHT22;53739;44.224;22.528;2023-03-24T10:17:56;563.60;2432.00
66831;DHT22;53739;44.224;22.528;2023-03-24T10:20:52;563.50;2432.00
66831;DHT22;53739;44.224;22.528;2023-03-24T10:29:14;564.10;2432.00
66831;DHT22;53739;44.224;22.528;2023-03-24T10:31:46;588.80;2432.00
66831;DHT22;53739;44.224;22.528;2023-03-24T10:34:14;589.00;2432.00
66831;DHT22;53739;44.224;22.528;2023-03-24T10:36:40;589.10;2432.00
66831;DHT22;53739;44.224;22.528;2023-03-24T10:39:14;589.20;2432.00
66831;DHT22;53739;44.224;22.528;2023-03-24T10:41:42;589.30;2432.00
66831;DHT22;53739;44.224;22.528;2023-03-24T10:44:09;589.00;2432.00
66831;DHT22;53739;44.224;22.528;2023-03-24T10:46:44;589.10;2432.00
66831;DHT22;53739;44.224;22.528;2023-03-24T10:51:37;589.10;2432.00
66831;DHT22;53739;44.224;22.528;2023-03-24T10:56:44;589.40;2432.00
66831;DHT22;53739;44.224;22.528;2023-03-24T11:04:36;588.90;2432.00
66831;DHT22;53739;44.224;22.528;2023-03-24T11:07:16;588.90;2432.00
66831;DHT22;53739;44.224;22.528;2023-03-24T11:13:28;589.60;2432.00
66831;DHT22;53739;44.224;22.528;2023-03-24T11:15:35;589.50;2432.00
66831;DHT22;53739;44.224;22.528;2023-03-24T11:18:14;589.40;2432.00
66831;DHT22;53739;44.224;22.528;2023-03-24T11:20:53;589.40;2432.00
66831;DHT22;53739;44.224;22.528;2023-03-24T11:23:31;589.10;2432.00
66831;DHT22;53739;44.224;22.528;2023-03-24T11:29:20;588.90;2432.00
66831;DHT22;53739;44.224;22.528;2023-03-24T11:31:55;589.50;2432.00
66831;DHT22;53739;44.224;22.528;2023-03-24T11:34:32;614.40;2432.00
66831;DHT22;53739;44.224;22.528;2023-03-24T11:37:12;589.50;2432.00
66831;DHT22;53739;44.224;22.528;2023-03-24T11:39:38;589.70;2432.00
66831;DHT22;53739;44.224;22.528;2023-03-24T11:44:51;589.30;2432.00
66831;DHT22;53739;44.224;22.528;2023-03-24T11:47:29;589.50;2432.00
66831;DHT22;53739;44.224;22.528;2023-03-24T11:52:53;589.60;2432.00
66831;DHT22;53739;44.224;22.528;2023-03-24T12:00:39;589.40;2432.00
66831;DHT22;53739;44.224;22.528;2023-03-24T12:09:16;589.50;2432.00
66831;DHT22;53739;44.224;22.528;2023-03-24T12:14:35;589.30;2432.00
66831;DHT22;53739;44.224;22.528;2023-03-24T12:17:16;589.20;2432.00
66831;DHT22;53739;44.224;22.528;2023-03-24T12:19:52;589.30;2432.00
66831;DHT22;53739;44.224;22.528;2023-03-24T12:22:53;589.30;2432.00
66831;DHT22;53739;44.224;22.528;2023-03-24T12:25:29;589.20;2432.00
66831;DHT22;53739;44.224;22.528;2023-03-24T12:30:44;589.30;2432.00
66831;DHT22;53739;44.224;22.528;2023-03-24T12:41:33;564.10;2432.00
66831;DHT22;53739;44.224;22.528;2023-03-24T12:49:56;589.10;2432.00
66831;DHT22;53739;44.224;22.528;2023-03-24T12:55:24;589.20;2432.00
66831;DHT22;53739;44.224;22.528;2023-03-24T12:57:58;589.40;2432.00
66831;DHT22;53739;44.224;22.528;2023-03-24T13:00:36;589.50;2432.00
66831;DHT22;53739;44.224;22.528;2023-03-24T13:03:20;589.50;2304.00
66831;DHT22;53739;44.224;22.528;2023-03-24T13:05:52;589.30;2432.00
66831;DHT22;53739;44.224;22.528;2023-03-24T13:08:22;588.90;2432.00
66831;DHT22;53739;44.224;22.528;2023-03-24T13:10:57;589.20;2252.80
66831;DHT22;53739;44.224;22.528;2023-03-24T13:13:30;589.50;2432.00
66831;DHT22;53739;44.224;22.528;2023-03-24T13:16:27;589.60;2252.80
66831;DHT22;53739;44.224;22.528;2023-03-24T13:18:56;589.70;2432.00
66831;DHT22;53739;44.224;22.528;2023-03-24T13:21:25;589.40;2432.00
66831;DHT22;53739;44.224;22.528;2023-03-24T13:24:11;589.40;2432.00
66831;DHT22;53739;44.224;22.528;2023-03-24T13:40:43;589.60;2432.00
66831;DHT22;53739;44.224;22.528;2023-03-24T13:43:12;589.70;2432.00
66831;DHT22;53739;44.224;22.528;2023-03-24T13:45:45;589.60;2432.00
66831;DHT22;53739;44.224;22.528;2023-03-24T13:50:40;589.60;2432.00
66831;DHT22;53739;44.224;22.528;2023-03-24T13:53:13;589.60;2432.00
66831;DHT22;53739;44.224;22.528;2023-03-24T13:55:50;589.60;2432.00
66831;DHT22;53739;44.224;22.528;2023-03-24T13:58:26;589.40;2432.00
66831;DHT22;53739;44.224;22.528;2023-03-24T14:06:49;589.30;2432.00
66831;DHT22;53739;44.224;22.528;2023-03-24T14:09:40;589.30;2432.00
66831;DHT22;53739;44.224;22.528;2023-03-24T14:12:21;589.20;2432.00
66831;DHT22;53739;44.224;22.528;2023-03-24T14:15:13;589.20;2432.00
66831;DHT22;53739;44.224;22.528;2023-03-24T14:17:43;589.10;2432.00
66831;DHT22;53739;44.224;22.528;2023-03-24T14:20:12;589.10;2432.00
66831;DHT22;53739;44.224;22.528;2023-03-24T14:22:44;589.10;2432.00
66831;DHT22;53739;44.224;22.528;2023-03-24T14:27:46;589.00;2432.00
66831;DHT22;53739;44.224;22.528;2023-03-24T14:30:22;589.00;2432.00
66831;DHT22;53739;44.224;22.528;2023-03-24T14:32:54;589.00;2432.00
66831;DHT22;53739;44.224;22.528;2023-03-24T14:37:55;589.00;2432.00
66831;DHT22;53739;44.224;22.528;2023-03-24T14:40:28;589.00;2432.00
66831;DHT22;53739;44.224;22.528;2023-03-24T14:43:16;588.90;2432.00
66831;DHT22;53739;44.224;22.528;2023-03-24T14:46:03;588.90;2432.00
66831;DHT22;53739;44.224;22.528;2023-03-24T14:53:38;588.80;2432.00
66831;DHT22;53739;44.224;22.528;2023-03-24T14:56:07;564.00;2432.00
66831;DHT22;53739;44.224;22.528;2023-03-24T14:58:39;564.00;2432.00
66831;DHT22;53739;44.224;22.528;2023-03-24T15:01:08;564.00;2432.00
66831;DHT22;53739;44.224;22.528;2023-03-24T15:06:25;563.70;2432.00
66831;DHT22;53739;44.224;22.528;2023-03-24T15:08:53;563.70;2432.00
66831;DHT22;53739;44.224;22.528;2023-03-24T15:11:22;563.60;2432.00
66831;DHT22;53739;44.224;22.528;2023-03-24T15:13:54;563.50;2432.00
66831;DHT22;53739;44.224;22.528;2023-03-24T15:16:27;563.50;2432.00
66831;DHT22;53739;44.224;22.528;2023-03-24T15:18:59;563.30;2432.00
66831;DHT22;53739;44.224;22.528;2023-03-24T15:21:29;563.20;2432.00
66831;DHT22;53739;44.224;22.528;2023-03-24T15:23:56;563.20;2432.00
66831;DHT22;53739;44.224;22.528;2023-03-24T15:26:24;538.40;2406.40
66831;DHT22;53739;44.224;22.528;2023-03-24T15:29:04;538.40;2406.40
66831;DHT22;53739;44.224;22.528;2023-03-24T15:31:30;538.30;2406.40
66831;DHT22;53739;44.224;22.528;2023-03-24T15:36:38;538.20;2406.40
66831;DHT22;53739;44.224;22.528;2023-03-24T15:39:16;538.10;2406.40
66831;DHT22;53739;44.224;22.528;2023-03-24T15:41:44;538.00;2406.40
66831;DHT22;53739;44.224;22.528;2023-03-24T15:44:17;538.00;2406.40
66831;DHT22;53739;44.224;22.528;2023-03-24T15:46:44;538.00;2406.40
66831;DHT22;53739;44.224;22.528;2023-03-24T15:54:51;537.70;2406.40
66831;DHT22;53739;44.224;22.528;2023-03-24T15:57:21;537.60;2406.40
66831;DHT22;53739;44.224;22.528;2023-03-24T16:00:03;512.90;2380.80
66831;DHT22;53739;44.224;22.528;2023-03-24T16:02:46;512.90;2380.80
66831;DHT22;53739;44.224;22.528;2023-03-24T16:05:22;512.70;2380.80
66831;DHT22;53739;44.224;22.528;2023-03-24T16:07:57;512.60;2380.80
66831;DHT22;53739;44.224;22.528;2023-03-24T16:13:17;512.40;2380.80
66831;DHT22;53739;44.224;22.528;2023-03-24T16:18:35;512.30;2380.80
66831;DHT22;53739;44.224;22.528;2023-03-24T16:21:09;512.20;2380.80
66831;DHT22;53739;44.224;22.528;2023-03-24T16:23:36;512.10;2380.80
66831;DHT22;53739;44.224;22.528;2023-03-24T16:26:01;512.00;2380.80
66831;DHT22;53739;44.224;22.528;2023-03-24T16:28:27;487.30;2380.80
66831;DHT22;53739;44.224;22.528;2023-03-24T16:31:00;487.30;2380.80
66831;DHT22;53739;44.224;22.528;2023-03-24T16:33:26;487.20;2380.80
66831;DHT22;53739;44.224;22.528;2023-03-24T16:35:52;487.10;2380.80
66831;DHT22;53739;44.224;22.528;2023-03-24T16:38:18;487.00;2380.80
66831;DHT22;53739;44.224;22.528;2023-03-24T16:40:47;487.00;2380.80
66831;DHT22;53739;44.224;22.528;2023-03-24T16:43:13;486.80;2380.80
66831;DHT22;53739;44.224;22.528;2023-03-24T16:45:40;486.80;2380.80
66831;DHT22;53739;44.224;22.528;2023-03-24T16:48:09;486.70;2380.80
66831;DHT22;53739;44.224;22.528;2023-03-24T16:50:41;486.60;2380.80
66831;DHT22;53739;44.224;22.528;2023-03-24T16:53:07;486.60;2380.80
66831;DHT22;53739;44.224;22.528;2023-03-24T16:55:38;486.50;2380.80
66831;DHT22;53739;44.224;22.528;2023-03-24T16:58:06;486.40;2380.80
66831;DHT22;53739;44.224;22.528;2023-03-24T17:00:33;461.70;2380.80
66831;DHT22;53739;44.224;22.528;2023-03-24T17:03:02;461.60;2380.80
66831;DHT22;53739;44.224;22.528;2023-03-24T17:05:38;461.50;2380.80
66831;DHT22;53739;44.224;22.528;2023-03-24T17:08:06;461.40;2380.80
66831;DHT22;53739;44.224;22.528;2023-03-24T17:10:32;461.20;2380.80
66831;DHT22;53739;44.224;22.528;2023-03-24T17:12:58;461.10;2380.80
66831;DHT22;53739;44.224;22.528;2023-03-24T17:15:28;461.00;2380.80
66831;DHT22;53739;44.224;22.528;2023-03-24T17:17:54;460.90;2380.80
66831;DHT22;53739;44.224;22.528;2023-03-24T17:20:21;460.80;2380.80
66831;DHT22;53739;44.224;22.528;2023-03-24T17:22:50;460.80;1996.80
66831;DHT22;53739;44.224;22.528;2023-03-24T17:25:18;436.00;2022.40
66831;DHT22;53739;44.224;22.528;2023-03-24T17:27:45;435.80;2252.80
66831;DHT22;53739;44.224;22.528;2023-03-24T17:30:19;435.70;2227.20
66831;DHT22;53739;44.224;22.528;2023-03-24T17:32:45;435.50;2355.20
66831;DHT22;53739;44.224;22.528;2023-03-24T17:35:16;435.50;2355.20
66831;DHT22;53739;44.224;22.528;2023-03-24T17:37:42;435.30;2355.20
66831;DHT22;53739;44.224;22.528;2023-03-24T17:40:13;435.20;2355.20
66831;DHT22;53739;44.224;22.528;2023-03-24T17:42:40;435.20;2355.20
66831;DHT22;53739;44.224;22.528;2023-03-24T17:45:10;435.20;2355.20
66831;DHT22;53739;44.224;22.528;2023-03-24T17:47:37;410.50;2355.20
66831;DHT22;53739;44.224;22.528;2023-03-24T17:50:04;410.40;2355.20
66831;DHT22;53739;44.224;22.528;2023-03-24T17:52:38;410.30;2355.20
66831;DHT22;53739;44.224;22.528;2023-03-24T17:55:05;410.20;2355.20
66831;DHT22;53739;44.224;22.528;2023-03-24T17:57:33;410.20;2355.20
66831;DHT22;53739;44.224;22.528;2023-03-24T17:59:58;410.20;2355.20
66831;DHT22;53739;44.224;22.528;2023-03-24T18:02:24;410.00;2355.20
66831;DHT22;53739;44.224;22.528;2023-03-24T18:04:51;409.90;2355.20
66831;DHT22;53739;44.224;22.528;2023-03-24T18:07:16;409.70;2355.20
66831;DHT22;53739;44.224;22.528;2023-03-24T18:09:42;409.60;2355.20
66831;DHT22;53739;44.224;22.528;2023-03-24T18:12:08;384.90;2329.60
66831;DHT22;53739;44.224;22.528;2023-03-24T18:14:34;384.90;2329.60
66831;DHT22;53739;44.224;22.528;2023-03-24T18:16:59;384.90;2329.60
66831;DHT22;53739;44.224;22.528;2023-03-24T18:19:25;384.80;2329.60
66831;DHT22;53739;44.224;22.528;2023-03-24T18:21:51;384.70;2329.60
66831;DHT22;53739;44.224;22.528;2023-03-24T18:24:20;384.70;2329.60
66831;DHT22;53739;44.224;22.528;2023-03-24T18:26:46;384.60;2329.60
66831;DHT22;53739;44.224;22.528;2023-03-24T18:29:11;384.60;2329.60
66831;DHT22;53739;44.224;22.528;2023-03-24T18:31:38;384.40;2329.60
66831;DHT22;53739;44.224;22.528;2023-03-24T18:34:03;384.40;2329.60
66831;DHT22;53739;44.224;22.528;2023-03-24T18:36:29;384.30;2329.60
66831;DHT22;53739;44.224;22.528;2023-03-24T18:38:59;384.30;2329.60
66831;DHT22;53739;44.224;22.528;2023-03-24T18:41:26;384.20;2329.60
66831;DHT22;53739;44.224;22.528;2023-03-24T18:43:57;384.10;2329.60
66831;DHT22;53739;44.224;22.528;2023-03-24T18:46:24;384.10;2329.60
66831;DHT22;53739;44.224;22.528;2023-03-24T18:48:50;384.00;2329.60
66831;DHT22;53739;44.224;22.528;2023-03-24T18:51:18;384.00;2329.60
66831;DHT22;53739;44.224;22.528;2023-03-24T18:53:46;359.30;2329.60
66831;DHT22;53739;44.224;22.528;2023-03-24T18:56:12;359.20;2329.60
66831;DHT22;53739;44.224;22.528;2023-03-24T18:58:39;359.00;2329.60
66831;DHT22;53739;44.224;22.528;2023-03-24T19:01:07;359.00;2329.60
66831;DHT22;53739;44.224;22.528;2023-03-24T19:03:37;359.00;2329.60
66831;DHT22;53739;44.224;22.528;2023-03-24T19:06:04;358.80;2329.60
66831;DHT22;53739;44.224;22.528;2023-03-24T19:08:36;358.80;2329.60
66831;DHT22;53739;44.224;22.528;2023-03-24T19:11:03;358.70;2329.60
66831;DHT22;53739;44.224;22.528;2023-03-24T19:13:29;358.60;2329.60
66831;DHT22;53739;44.224;22.528;2023-03-24T19:15:55;358.50;2329.60
66831;DHT22;53739;44.224;22.528;2023-03-24T19:18:22;358.50;2329.60
66831;DHT22;53739;44.224;22.528;2023-03-24T19:20:48;358.50;2329.60
66831;DHT22;53739;44.224;22.528;2023-03-24T19:23:14;358.50;2329.60
66831;DHT22;53739;44.224;22.528;2023-03-24T19:25:41;333.60;2329.60
66831;DHT22;53739;44.224;22.528;2023-03-24T19:28:08;333.70;2176.00
66831;DHT22;53739;44.224;22.528;2023-03-24T19:30:37;333.70;2329.60
66831;DHT22;53739;44.224;22.528;2023-03-24T19:33:03;333.70;2329.60
66831;DHT22;53739;44.224;22.528;2023-03-24T19:35:29;333.70;2329.60
66831;DHT22;53739;44.224;22.528;2023-03-24T19:37:56;333.60;2329.60
66831;DHT22;53739;44.224;22.528;2023-03-24T19:40:23;333.60;2329.60
66831;DHT22;53739;44.224;22.528;2023-03-24T19:42:49;333.50;2329.60
66831;DHT22;53739;44.224;22.528;2023-03-24T19:45:16;333.30;128.00
66831;DHT22;53739;44.224;22.528;2023-03-24T19:47:43;333.40;128.00
66831;DHT22;53739;44.224;22.528;2023-03-24T19:50:11;333.10;128.00
66831;DHT22;53739;44.224;22.528;2023-03-24T19:52:38;332.90;128.00
66831;DHT22;53739;44.224;22.528;2023-03-24T19:55:04;332.80;128.00
66831;DHT22;53739;44.224;22.528;2023-03-24T19:57:33;308.10;128.00
66831;DHT22;53739;44.224;22.528;2023-03-24T20:00:00;332.80;128.00
66831;DHT22;53739;44.224;22.528;2023-03-24T20:02:27;332.80;128.00
66831;DHT22;53739;44.224;22.528;2023-03-24T20:04:53;308.00;128.00
66831;DHT22;53739;44.224;22.528;2023-03-24T20:07:20;308.10;128.00
66831;DHT22;53739;44.224;22.528;2023-03-24T20:09:46;308.00;128.00
66831;DHT22;53739;44.224;22.528;2023-03-24T20:12:12;308.00;128.00
66831;DHT22;53739;44.224;22.528;2023-03-24T20:14:38;307.90;128.00
66831;DHT22;53739;44.224;22.528;2023-03-24T20:17:05;307.80;128.00
66831;DHT22;53739;44.224;22.528;2023-03-24T20:19:31;307.70;128.00